createdAt,value
2023-05-01T00:01:52.518Z,11.38
2023-05-01T00:04:19.421Z,8.10
2023-05-01T00:06:46.307Z,7.78
2023-05-01T00:09:13.015Z,9.20
2023-05-01T00:11:39.668Z,6.55
2023-05-01T00:14:06.225Z,8.25
2023-05-01T00:16:32.871Z,8.48
2023-05-01T00:18:59.485Z,8.18
2023-05-01T00:21:26.100Z,8.27
2023-05-01T00:23:52.660Z,11.38
2023-05-01T00:26:21.648Z,7.97
2023-05-01T00:28:48.224Z,11.30
2023-05-01T00:31:15.346Z,8.60
2023-05-01T00:33:41.964Z,6.53
2023-05-01T00:36:09.125Z,6.68
2023-05-01T00:38:35.694Z,8.50
2023-05-01T00:41:02.225Z,10.43
2023-05-01T00:43:28.812Z,7.38
2023-05-01T00:45:55.485Z,7.07
2023-05-01T00:48:22.117Z,9.25
2023-05-01T00:50:49.621Z,6.22
2023-05-01T00:53:16.604Z,6.82
2023-05-01T00:55:43.387Z,7.55
2023-05-01T00:58:12.180Z,8.60
2023-05-01T01:00:38.883Z,8.73
2023-05-01T01:03:05.836Z,6.03
2023-05-01T01:05:35.694Z,7.18
2023-05-01T01:08:23.814Z,6.47
2023-05-01T01:10:59.505Z,7.45
2023-05-01T01:13:34.480Z,8.40
2023-05-01T01:16:23.272Z,10.02
2023-05-01T01:19:02.026Z,6.43
2023-05-01T01:21:33.007Z,8.63
2023-05-01T01:24:24.734Z,6.50
2023-05-01T01:27:09.721Z,7.45
2023-05-01T01:30:00.852Z,7.45
2023-05-01T01:33:06.932Z,12.98
2023-05-01T01:35:36.146Z,6.95
2023-05-01T01:38:10.609Z,8.55
2023-05-01T01:40:49.124Z,7.32
2023-05-01T01:43:18.751Z,7.78
2023-05-01T01:45:59.101Z,6.13
2023-05-01T01:48:31.284Z,7.32
2023-05-01T01:51:00.855Z,7.00
2023-05-01T01:53:29.543Z,8.77
2023-05-01T01:55:57.926Z,9.70
2023-05-01T01:58:26.712Z,6.45
2023-05-01T02:00:55.255Z,8.57
2023-05-01T02:03:22.886Z,7.35
2023-05-01T02:05:52.158Z,7.05
2023-05-01T02:08:19.534Z,6.82
2023-05-01T02:10:48.117Z,7.93
2023-05-01T02:13:16.445Z,4.72
2023-05-01T02:15:45.444Z,8.20
2023-05-01T02:18:12.881Z,6.53
2023-05-01T02:20:41.046Z,8.73
2023-05-01T02:23:08.970Z,5.50
2023-05-01T02:25:39.327Z,7.93
2023-05-01T02:28:12.625Z,7.30
2023-05-01T02:30:39.674Z,8.10
2023-05-01T02:33:09.328Z,7.00
2023-05-01T02:35:49.500Z,6.80
2023-05-01T02:38:16.845Z,5.75
2023-05-01T02:40:48.940Z,7.80
2023-05-01T02:43:18.702Z,7.53
2023-05-01T02:45:45.885Z,5.65
2023-05-01T02:48:17.379Z,6.13
2023-05-01T02:50:45.955Z,7.63
2023-05-01T02:53:13.399Z,6.55
2023-05-01T02:55:40.140Z,7.32
2023-05-01T02:58:07.010Z,8.00
2023-05-01T03:00:35.154Z,6.65
2023-05-01T03:03:01.793Z,6.72
2023-05-01T03:05:28.373Z,5.80
2023-05-01T03:07:54.956Z,6.32
2023-05-01T03:10:21.618Z,7.07
2023-05-01T03:12:48.199Z,6.75
2023-05-01T03:15:14.833Z,6.43
2023-05-01T03:17:41.794Z,7.93
2023-05-01T03:20:10.800Z,6.38
2023-05-01T03:22:37.427Z,6.32
2023-05-01T03:25:06.876Z,6.25
2023-05-01T03:27:33.560Z,4.30
2023-05-01T03:30:00.223Z,7.72
2023-05-01T03:32:29.280Z,7.00
2023-05-01T03:34:56.008Z,5.15
2023-05-01T03:37:22.625Z,5.93
2023-05-01T03:39:49.214Z,7.18
2023-05-01T03:42:15.915Z,5.78
2023-05-01T03:44:42.577Z,7.32
2023-05-01T03:47:10.160Z,9.15
2023-05-01T03:49:36.795Z,6.45
2023-05-01T03:52:03.414Z,9.43
2023-05-01T03:54:30.361Z,4.88
2023-05-01T03:56:57.062Z,8.25
2023-05-01T03:59:23.639Z,7.40
2023-05-01T04:01:50.327Z,5.63
2023-05-01T04:04:16.973Z,5.40
2023-05-01T04:06:43.797Z,6.72
2023-05-01T04:09:10.902Z,7.10
2023-05-01T04:11:37.483Z,8.30
2023-05-01T04:14:04.030Z,6.70
2023-05-01T04:16:31.083Z,7.65
2023-05-01T04:18:57.717Z,6.25
2023-05-01T04:21:24.401Z,4.95
2023-05-01T04:23:51.085Z,7.85
2023-05-01T04:26:17.766Z,9.95
2023-05-01T04:28:44.418Z,5.93
2023-05-01T04:31:11.058Z,6.85
2023-05-01T04:33:37.707Z,7.30
2023-05-01T04:36:04.455Z,10.45
2023-05-01T04:38:31.061Z,5.72
2023-05-01T04:40:57.649Z,5.45
2023-05-01T04:43:24.356Z,5.80
2023-05-01T04:45:50.943Z,7.22
2023-05-01T04:48:17.622Z,7.40
2023-05-01T04:50:44.237Z,7.13
2023-05-01T04:53:10.839Z,7.15
2023-05-01T04:55:37.523Z,5.88
2023-05-01T04:58:04.997Z,6.45
2023-05-01T05:00:31.654Z,6.88
2023-05-01T05:02:58.345Z,8.63
2023-05-01T05:05:25.009Z,6.38
2023-05-01T05:07:51.594Z,7.47
2023-05-01T05:10:18.189Z,7.07
2023-05-01T05:12:44.956Z,8.00
2023-05-01T05:15:11.668Z,5.60
2023-05-01T05:17:38.529Z,7.45
2023-05-01T05:20:05.995Z,6.03
2023-05-01T05:22:36.399Z,6.97
2023-05-01T05:25:04.585Z,8.20
2023-05-01T05:27:36.362Z,8.02
2023-05-01T05:30:07.307Z,7.40
2023-05-01T05:32:34.326Z,10.55
2023-05-01T05:35:01.137Z,7.25
2023-05-01T05:37:28.050Z,8.43
2023-05-01T05:39:55.364Z,8.00
2023-05-01T05:42:22.447Z,5.15
2023-05-01T05:44:49.078Z,7.55
2023-05-01T05:47:15.630Z,6.65
2023-05-01T05:49:42.345Z,8.95
2023-05-01T05:52:08.907Z,7.47
2023-05-01T05:54:37.327Z,7.00
2023-05-01T05:57:04.166Z,10.10
2023-05-01T05:59:31.012Z,8.85
2023-05-01T06:01:57.757Z,6.13
2023-05-01T06:04:24.421Z,5.60
2023-05-01T06:06:51.083Z,12.70
2023-05-01T06:09:19.927Z,6.88
2023-05-01T06:11:46.540Z,5.00
2023-05-01T06:14:13.285Z,9.65
2023-05-01T06:16:40.127Z,7.15
2023-05-01T06:19:07.939Z,6.47
2023-05-01T06:21:34.579Z,7.65
2023-05-01T06:24:03.378Z,9.05
2023-05-01T06:26:31.523Z,6.93
2023-05-01T06:28:58.138Z,6.35
2023-05-01T06:31:25.029Z,5.72
2023-05-01T06:33:51.678Z,4.55
2023-05-01T06:36:18.299Z,5.85
2023-05-01T06:38:48.597Z,5.50
2023-05-01T06:41:18.578Z,6.40
2023-05-01T06:43:45.312Z,8.38
2023-05-01T06:46:14.225Z,6.57
2023-05-01T06:48:40.886Z,4.93
2023-05-01T06:51:07.628Z,6.47
2023-05-01T06:53:34.862Z,4.43
2023-05-01T06:56:01.447Z,4.70
2023-05-01T06:58:30.208Z,3.40
2023-05-01T07:00:57.019Z,5.20
2023-05-01T07:03:23.695Z,6.40
2023-05-01T07:05:52.053Z,4.88
2023-05-01T07:08:18.878Z,6.45
2023-05-01T07:10:45.463Z,4.82
2023-05-01T07:13:12.633Z,6.32
2023-05-01T07:15:39.294Z,7.80
2023-05-01T07:18:06.363Z,4.10
2023-05-01T07:20:33.299Z,8.57
2023-05-01T07:23:00.212Z,5.63
2023-05-01T07:25:26.852Z,6.53
2023-05-01T07:27:54.184Z,3.90
2023-05-01T07:30:20.950Z,9.05
2023-05-01T07:32:47.749Z,6.35
2023-05-01T07:35:14.603Z,4.88
2023-05-01T07:37:41.147Z,3.38
2023-05-01T07:40:10.009Z,4.53
2023-05-01T07:42:36.784Z,4.47
2023-05-01T07:45:03.876Z,4.53
2023-05-01T07:47:30.616Z,4.35
2023-05-01T07:49:57.670Z,4.35
2023-05-01T07:52:24.654Z,3.67
2023-05-01T07:54:51.580Z,4.85
2023-05-01T07:57:19.050Z,4.45
2023-05-01T07:59:45.889Z,6.70
2023-05-01T08:02:13.687Z,4.30
2023-05-01T08:04:41.514Z,6.22
2023-05-01T08:07:08.230Z,4.78
2023-05-01T08:09:34.898Z,5.60
2023-05-01T08:12:03.674Z,5.22
2023-05-01T08:14:30.877Z,5.00
2023-05-01T08:16:59.110Z,5.90
2023-05-01T08:19:28.007Z,5.13
2023-05-01T08:21:55.262Z,5.10
2023-05-01T08:24:21.820Z,4.25
2023-05-01T08:26:48.898Z,5.30
2023-05-01T08:29:15.957Z,5.85
2023-05-01T08:31:43.684Z,6.30
2023-05-01T08:34:10.390Z,7.35
2023-05-01T08:36:39.555Z,6.38
2023-05-01T08:39:06.562Z,5.32
2023-05-01T08:41:33.766Z,4.47
2023-05-01T08:44:01.710Z,5.03
2023-05-01T08:46:47.677Z,6.95
2023-05-01T08:49:16.816Z,4.35
2023-05-01T08:51:47.908Z,7.10
2023-05-01T08:54:20.020Z,3.53
2023-05-01T08:56:54.999Z,3.47
2023-05-01T08:59:24.886Z,4.55
2023-05-01T09:01:52.256Z,7.22
2023-05-01T09:04:19.190Z,4.07
2023-05-01T09:06:46.157Z,7.05
2023-05-01T09:09:12.877Z,4.53
2023-05-01T09:11:40.128Z,4.88
2023-05-01T09:14:08.403Z,4.80
2023-05-01T09:16:37.065Z,7.63
2023-05-01T09:19:04.721Z,5.63
2023-05-01T09:21:32.035Z,4.20
2023-05-01T09:23:58.653Z,5.30
2023-05-01T09:26:27.010Z,3.65
2023-05-01T09:28:57.982Z,5.40
2023-05-01T09:31:30.668Z,4.60
2023-05-01T09:34:02.615Z,3.15
2023-05-01T09:36:32.036Z,5.45
2023-05-01T09:39:03.177Z,8.10
2023-05-01T09:41:32.915Z,4.32
2023-05-01T09:43:59.837Z,3.95
2023-05-01T09:46:27.018Z,6.30
2023-05-01T09:48:58.599Z,7.97
2023-05-01T09:51:30.469Z,5.90
2023-05-01T09:54:02.436Z,4.93
2023-05-01T09:56:31.621Z,5.50
2023-05-01T09:59:15.176Z,5.32
2023-05-01T10:01:44.274Z,4.90
2023-05-01T10:04:11.498Z,6.43
2023-05-01T10:06:39.518Z,20.20
2023-05-01T10:09:10.754Z,5.97
2023-05-01T10:11:55.599Z,5.45
2023-05-01T10:14:24.026Z,4.70
2023-05-01T10:16:52.975Z,4.63
2023-05-01T10:19:21.315Z,5.75
2023-05-01T10:21:48.019Z,5.82
2023-05-01T10:24:16.631Z,3.83
2023-05-01T10:26:43.967Z,4.07
2023-05-01T10:29:12.360Z,4.57
2023-05-01T10:31:41.523Z,4.88
2023-05-01T10:34:10.449Z,3.17
2023-05-01T10:36:42.893Z,3.55
2023-05-01T10:39:35.026Z,3.72
2023-05-01T10:42:06.556Z,3.30
2023-05-01T10:44:34.849Z,6.75
2023-05-01T10:47:42.793Z,4.22
2023-05-01T10:50:16.336Z,3.83
2023-05-01T10:53:17.640Z,6.25
2023-05-01T10:55:54.958Z,4.57
2023-05-01T10:58:38.776Z,4.38
2023-05-01T11:01:40.603Z,3.40
2023-05-01T11:04:28.156Z,4.28
2023-05-01T11:07:11.194Z,5.28
2023-05-01T11:09:46.300Z,5.03
2023-05-01T11:12:14.710Z,4.68
2023-05-01T11:15:05.859Z,4.32
2023-05-01T11:17:41.761Z,5.47
2023-05-01T11:20:29.941Z,5.60
2023-05-01T11:22:57.681Z,4.78
2023-05-01T11:25:27.519Z,8.15
2023-05-01T11:27:58.643Z,4.28
2023-05-01T11:30:27.436Z,6.20
2023-05-01T11:32:54.423Z,3.50
2023-05-01T11:35:28.774Z,4.85
2023-05-01T11:37:55.894Z,3.50
2023-05-01T11:40:27.440Z,3.65
2023-05-01T11:43:07.881Z,6.10
2023-05-01T11:45:35.987Z,5.05
2023-05-01T11:48:04.602Z,3.25
2023-05-01T11:50:35.831Z,4.93
2023-05-01T11:53:15.473Z,3.90
2023-05-01T11:55:42.057Z,5.68
2023-05-01T11:58:09.124Z,3.15
2023-05-01T12:00:38.135Z,7.15
2023-05-01T12:03:10.167Z,5.22
2023-05-01T12:05:41.061Z,3.72
2023-05-01T12:08:15.558Z,3.40
2023-05-01T12:10:43.353Z,5.78
2023-05-01T12:13:13.343Z,4.03
2023-05-01T12:15:42.398Z,4.57
2023-05-01T12:18:09.691Z,4.35
2023-05-01T12:20:41.264Z,3.45
2023-05-01T12:23:10.670Z,4.15
2023-05-01T12:25:39.297Z,6.13
2023-05-01T12:28:18.131Z,7.82
2023-05-01T12:30:46.567Z,4.32
2023-05-01T12:33:15.647Z,3.20
2023-05-01T12:35:46.433Z,6.47
2023-05-01T12:38:22.827Z,5.55
2023-05-01T12:40:56.577Z,4.95
2023-05-01T12:43:32.006Z,7.57
2023-05-01T12:45:58.964Z,6.65
2023-05-01T12:48:25.842Z,1.90
2023-05-01T12:50:55.744Z,3.20
2023-05-01T12:53:24.646Z,3.35
2023-05-01T12:55:53.878Z,4.25
2023-05-01T12:58:20.685Z,2.60
2023-05-01T13:00:55.326Z,3.60
2023-05-01T13:03:26.975Z,3.92
2023-05-01T13:06:04.028Z,4.43
2023-05-01T13:08:33.145Z,2.72
2023-05-01T13:11:10.966Z,3.67
2023-05-01T13:13:37.709Z,3.38
2023-05-01T13:16:12.249Z,2.75
2023-05-01T13:18:45.984Z,1.77
2023-05-01T13:21:16.318Z,3.15
2023-05-01T13:23:58.531Z,2.22
2023-05-01T13:26:33.511Z,2.05
2023-05-01T13:29:01.600Z,3.75
2023-05-01T13:31:30.962Z,3.15
2023-05-01T13:33:59.333Z,3.85
2023-05-01T13:36:27.500Z,2.80
2023-05-01T13:38:56.978Z,2.80
2023-05-01T13:41:26.214Z,2.55
2023-05-01T13:43:54.775Z,4.03
2023-05-01T13:46:22.953Z,2.55
2023-05-01T13:48:50.042Z,2.05
2023-05-01T13:51:22.384Z,2.45
2023-05-01T13:53:49.147Z,5.78
2023-05-01T13:56:16.281Z,2.53
2023-05-01T13:58:42.988Z,3.63
2023-05-01T14:01:20.558Z,3.10
2023-05-01T14:03:47.931Z,1.92
2023-05-01T14:06:17.870Z,2.92
2023-05-01T14:08:46.938Z,3.03
2023-05-01T14:11:14.196Z,2.03
2023-05-01T14:13:42.638Z,4.63
2023-05-01T14:16:11.488Z,2.67
2023-05-01T14:18:45.321Z,3.17
2023-05-01T14:21:16.448Z,3.35
2023-05-01T14:23:43.190Z,2.40
2023-05-01T14:26:11.405Z,4.13
2023-05-01T14:28:46.180Z,3.03
2023-05-01T14:31:27.470Z,2.65
2023-05-01T14:33:57.972Z,4.35
2023-05-01T14:36:25.243Z,7.05
2023-05-01T14:38:54.074Z,4.18
2023-05-01T14:41:21.363Z,2.28
2023-05-01T14:43:53.324Z,4.15
2023-05-01T14:46:31.379Z,3.60
2023-05-01T14:48:59.551Z,3.92
2023-05-01T14:51:27.126Z,2.50
2023-05-01T14:53:53.913Z,3.33
2023-05-01T14:56:20.952Z,3.20
2023-05-01T14:58:47.543Z,2.47
2023-05-01T15:01:14.865Z,4.45
2023-05-01T15:03:43.840Z,3.50
2023-05-01T15:06:11.170Z,2.00
2023-05-01T15:08:38.183Z,3.28
2023-05-01T15:11:04.972Z,2.45
2023-05-01T15:13:31.809Z,5.50
2023-05-01T15:15:58.793Z,2.38
2023-05-01T15:18:26.148Z,2.95
2023-05-01T15:20:52.790Z,3.15
2023-05-01T15:23:19.340Z,2.53
2023-05-01T15:25:47.622Z,3.95
2023-05-01T15:28:14.231Z,3.33
2023-05-01T15:30:45.881Z,2.47
2023-05-01T15:33:15.526Z,3.33
2023-05-01T15:35:45.599Z,3.83
2023-05-01T15:38:12.387Z,2.50
2023-05-01T15:40:39.035Z,6.32
2023-05-01T15:43:06.451Z,2.90
2023-05-01T15:45:33.470Z,4.70
2023-05-01T15:48:00.794Z,3.45
2023-05-01T15:50:27.598Z,4.72
2023-05-01T15:52:54.441Z,3.75
2023-05-01T15:55:21.931Z,3.80
2023-05-01T15:57:48.752Z,3.85
2023-05-01T16:00:20.189Z,4.05
2023-05-01T16:02:46.833Z,3.50
2023-05-01T16:05:18.785Z,2.95
2023-05-01T16:07:46.031Z,5.45
2023-05-01T16:10:14.767Z,5.78
2023-05-01T16:12:41.361Z,3.30
2023-05-01T16:15:08.422Z,2.88
2023-05-01T16:17:44.918Z,4.30
2023-05-01T16:20:15.314Z,4.95
2023-05-01T16:22:43.172Z,4.03
2023-05-01T16:25:10.559Z,4.82
2023-05-01T16:27:45.681Z,8.23
2023-05-01T16:30:14.509Z,4.72
2023-05-01T16:32:41.887Z,7.45
2023-05-01T16:35:11.432Z,5.35
2023-05-01T16:37:38.656Z,6.18
2023-05-01T16:40:07.402Z,5.25
2023-05-01T16:42:34.154Z,3.65
2023-05-01T16:45:01.140Z,5.32
2023-05-01T16:47:27.739Z,7.32
2023-05-01T16:49:59.836Z,4.35
2023-05-01T16:52:27.209Z,5.35
2023-05-01T16:54:54.785Z,3.70
2023-05-01T16:57:21.371Z,7.00
2023-05-01T16:59:47.991Z,4.75
2023-05-01T17:02:14.710Z,7.32
2023-05-01T17:04:41.512Z,9.70
2023-05-01T17:07:10.325Z,4.32
2023-05-01T17:09:37.238Z,3.75
2023-05-01T17:12:04.066Z,6.22
2023-05-01T17:14:30.997Z,4.20
2023-05-01T17:16:58.747Z,5.63
2023-05-01T17:19:25.796Z,4.43
2023-05-01T17:21:52.448Z,6.18
2023-05-01T17:24:19.316Z,4.50
2023-05-01T17:26:46.601Z,5.40
2023-05-01T17:29:13.212Z,7.03
2023-05-01T17:31:39.763Z,7.60
2023-05-01T17:34:06.376Z,6.38
2023-05-01T17:36:33.317Z,3.70
2023-05-01T17:39:01.286Z,5.45
2023-05-01T17:41:28.009Z,3.33
2023-05-01T17:43:55.631Z,3.72
2023-05-01T17:46:24.305Z,5.18
2023-05-01T17:48:51.055Z,3.92
2023-05-01T17:51:18.098Z,3.15
2023-05-01T17:53:44.650Z,5.00
2023-05-01T17:56:11.331Z,4.35
2023-05-01T17:58:41.617Z,5.57
2023-05-01T18:01:08.435Z,4.38
2023-05-01T18:03:35.130Z,3.70
2023-05-01T18:06:02.898Z,4.88
2023-05-01T18:08:29.665Z,4.97
2023-05-01T18:10:56.392Z,3.33
2023-05-01T18:13:28.076Z,4.03
2023-05-01T18:15:55.788Z,3.75
2023-05-01T18:18:23.141Z,3.55
2023-05-01T18:20:49.983Z,4.20
2023-05-01T18:23:18.470Z,2.63
2023-05-01T18:25:45.182Z,3.53
2023-05-01T18:28:12.157Z,5.78
2023-05-01T18:30:38.873Z,4.20
2023-05-01T18:33:05.506Z,3.45
2023-05-01T18:35:32.171Z,3.92
2023-05-01T18:37:58.704Z,4.22
2023-05-01T18:40:26.990Z,5.18
2023-05-01T18:42:53.613Z,3.83
2023-05-01T18:45:20.164Z,4.13
2023-05-01T18:47:46.766Z,4.22
2023-05-01T18:50:14.686Z,2.28
2023-05-01T18:52:42.358Z,2.35
2023-05-01T18:55:11.712Z,1.75
2023-05-01T18:57:41.525Z,2.72
2023-05-01T19:00:09.099Z,4.00
2023-05-01T19:02:35.764Z,4.75
2023-05-01T19:05:04.985Z,4.50
2023-05-01T19:07:31.661Z,3.72
2023-05-01T19:09:58.432Z,6.38
2023-05-01T19:12:25.436Z,6.05
2023-05-01T19:14:52.080Z,5.50
2023-05-01T19:17:19.998Z,8.52
2023-05-01T19:19:48.123Z,5.85
2023-05-01T19:22:14.829Z,6.40
2023-05-01T19:24:41.429Z,3.45
2023-05-01T19:27:07.976Z,4.95
2023-05-01T19:29:34.895Z,4.70
2023-05-01T19:32:01.575Z,4.63
2023-05-01T19:34:30.418Z,10.85
2023-05-01T19:36:59.232Z,6.55
2023-05-01T19:39:26.405Z,6.95
2023-05-01T19:41:53.883Z,6.25
2023-05-01T19:44:21.987Z,5.55
2023-05-01T19:46:49.055Z,4.97
2023-05-01T19:49:15.653Z,6.15
2023-05-01T19:51:42.576Z,7.78
2023-05-01T19:54:09.437Z,4.75
2023-05-01T19:56:36.387Z,4.47
2023-05-01T19:59:02.970Z,5.60
2023-05-01T20:01:31.298Z,5.05
2023-05-01T20:03:58.007Z,4.50
2023-05-01T20:06:24.696Z,4.63
2023-05-01T20:08:51.778Z,3.20
2023-05-01T20:11:18.626Z,5.18
2023-05-01T20:13:45.837Z,4.43
2023-05-01T20:16:12.499Z,6.70
2023-05-01T20:18:39.066Z,5.32
2023-05-01T20:21:07.204Z,4.45
2023-05-01T20:23:34.590Z,4.82
2023-05-01T20:26:01.302Z,6.57
2023-05-01T20:28:28.463Z,5.55
2023-05-01T20:30:56.329Z,4.22
2023-05-01T20:33:23.111Z,6.07
2023-05-01T20:35:51.416Z,5.45
2023-05-01T20:38:18.121Z,5.55
2023-05-01T20:40:44.902Z,5.82
2023-05-01T20:43:11.657Z,6.88
2023-05-01T20:45:39.447Z,5.25
2023-05-01T20:48:06.318Z,4.63
2023-05-01T20:50:32.971Z,5.63
2023-05-01T20:52:59.620Z,5.72
2023-05-01T20:55:27.968Z,5.93
2023-05-01T20:57:54.732Z,10.13
2023-05-01T21:00:21.548Z,5.35
2023-05-01T21:02:48.284Z,6.28
2023-05-01T21:05:16.218Z,7.13
2023-05-01T21:07:42.897Z,5.75
2023-05-01T21:10:10.954Z,12.05
2023-05-01T21:12:39.638Z,8.93
2023-05-01T21:15:06.692Z,7.95
2023-05-01T21:17:35.404Z,6.30
2023-05-01T21:20:04.409Z,6.55
2023-05-01T21:22:31.139Z,6.38
2023-05-01T21:24:59.694Z,10.55
2023-05-01T21:27:27.279Z,6.90
2023-05-01T21:29:59.141Z,4.25
2023-05-01T21:32:46.321Z,7.07
2023-05-01T21:35:16.657Z,9.52
2023-05-01T21:37:44.545Z,4.60
2023-05-01T21:40:14.021Z,7.28
2023-05-01T21:42:40.856Z,6.82
2023-05-01T21:45:09.061Z,10.13
2023-05-01T21:47:38.140Z,6.90
2023-05-01T21:50:11.064Z,5.38
2023-05-01T21:52:37.911Z,6.32
2023-05-01T21:55:06.947Z,8.13
2023-05-01T21:57:40.179Z,7.72
2023-05-01T22:00:12.147Z,10.77
2023-05-01T22:02:44.206Z,7.28
2023-05-01T22:05:12.691Z,8.57
2023-05-01T22:07:40.588Z,8.05
2023-05-01T22:10:13.957Z,8.82
2023-05-01T22:12:41.495Z,8.73
2023-05-01T22:15:09.417Z,8.15
2023-05-01T22:17:37.194Z,6.80
2023-05-01T22:20:07.415Z,7.47
2023-05-01T22:22:34.641Z,7.50
2023-05-01T22:25:01.281Z,8.07
2023-05-01T22:27:27.982Z,11.88
2023-05-01T22:29:54.580Z,10.65
2023-05-01T22:32:21.474Z,14.38
2023-05-01T22:34:48.322Z,11.75
2023-05-01T22:37:15.747Z,11.70
2023-05-01T22:39:42.820Z,13.48
2023-05-01T22:42:09.606Z,18.95
2023-05-01T22:44:36.507Z,15.98
2023-05-01T22:47:03.245Z,17.80
2023-05-01T22:49:29.801Z,18.60
2023-05-01T22:51:57.174Z,15.13
2023-05-01T22:54:24.551Z,19.55
2023-05-01T22:56:51.800Z,17.45
2023-05-01T22:59:19.453Z,15.45
2023-05-01T23:01:46.265Z,18.40
2023-05-01T23:04:13.849Z,16.10
2023-05-01T23:06:40.949Z,18.80
2023-05-01T23:09:08.416Z,15.85
2023-05-01T23:11:35.123Z,18.02
2023-05-01T23:14:01.807Z,17.33
2023-05-01T23:16:35.550Z,16.92
2023-05-01T23:19:02.288Z,15.43
2023-05-01T23:21:29.084Z,18.83
2023-05-01T23:23:55.659Z,15.48
2023-05-01T23:26:26.996Z,20.00
2023-05-01T23:28:53.769Z,18.58
2023-05-01T23:31:25.611Z,24.60
2023-05-01T23:33:53.274Z,24.67
2023-05-01T23:36:20.862Z,21.80
2023-05-01T23:38:48.052Z,26.45
2023-05-01T23:41:16.312Z,25.55
2023-05-01T23:43:44.418Z,27.13
2023-05-01T23:46:11.533Z,30.48
2023-05-01T23:48:38.273Z,30.33
2023-05-01T23:51:05.570Z,30.15
2023-05-01T23:53:32.325Z,29.33
2023-05-01T23:55:58.926Z,33.97
2023-05-01T23:58:25.545Z,34.85
